createdAt,value
2023-07-03T00:02:05.360Z,23.07
2023-07-03T00:04:42.762Z,23.53
2023-07-03T00:07:28.771Z,24.20
2023-07-03T00:10:17.599Z,23.97
2023-07-03T00:13:00.639Z,22.93
2023-07-03T00:15:34.103Z,23.67
2023-07-03T00:21:59.792Z,22.93
2023-07-03T00:24:42.735Z,23.80
2023-07-03T00:27:29.881Z,24.50
2023-07-03T00:30:07.326Z,23.57
2023-07-03T00:32:43.614Z,23.93
2023-07-03T00:35:53.808Z,23.70
2023-07-03T00:38:50.951Z,23.93
2023-07-03T00:41:43.796Z,23.30
2023-07-03T00:44:33.568Z,23.93
2023-07-03T00:47:02.024Z,23.73
2023-07-03T00:49:43.906Z,24.47
2023-07-03T00:55:35.651Z,24.10
2023-07-03T00:58:43.432Z,24.30
2023-07-03T01:01:29.664Z,24.17
2023-07-03T01:04:29.289Z,24.43
2023-07-03T01:07:31.047Z,24.03
2023-07-03T01:10:08.868Z,22.93
2023-07-03T01:12:55.568Z,25.67
2023-07-03T01:15:46.848Z,23.80
2023-07-03T01:21:31.483Z,23.30
2023-07-03T01:24:24.128Z,24.90
2023-07-03T01:27:18.105Z,24.10
2023-07-03T01:30:10.323Z,24.20
2023-07-03T01:32:58.444Z,23.50
2023-07-03T01:35:36.892Z,24.37
2023-07-03T01:38:26.762Z,24.70
2023-07-03T01:41:21.463Z,23.50
2023-07-03T01:44:01.653Z,24.00
2023-07-03T01:46:44.657Z,23.23
2023-07-03T01:49:48.543Z,23.23
2023-07-03T01:52:34.284Z,24.30
2023-07-03T01:58:01.050Z,23.00
2023-07-03T02:00:47.574Z,23.43
2023-07-03T02:03:25.310Z,23.27
2023-07-03T02:05:57.765Z,24.13
2023-07-03T02:08:41.783Z,23.97
2023-07-03T02:11:25.163Z,23.47
2023-07-03T02:14:40.216Z,22.50
2023-07-03T02:17:36.397Z,23.10
2023-07-03T02:20:17.891Z,23.23
2023-07-03T02:22:47.005Z,24.40
2023-07-03T02:25:20.551Z,23.37
2023-07-03T02:28:25.891Z,23.50
2023-07-03T02:31:22.136Z,24.33
2023-07-03T02:34:00.995Z,24.20
2023-07-03T02:36:49.096Z,24.33
2023-07-03T02:39:29.501Z,24.57
2023-07-03T02:42:20.247Z,24.60
2023-07-03T02:45:02.593Z,23.00
2023-07-03T02:47:49.593Z,24.30
2023-07-03T02:50:35.920Z,24.57
2023-07-03T02:53:09.082Z,24.20
2023-07-03T02:55:58.192Z,23.50
2023-07-03T02:58:41.780Z,24.03
2023-07-03T03:01:25.392Z,24.43
2023-07-03T03:04:18.028Z,24.53
2023-07-03T03:07:00.192Z,25.67
2023-07-03T03:09:43.262Z,23.83
2023-07-03T03:12:32.986Z,23.43
2023-07-03T03:15:06.473Z,23.00
2023-07-03T03:17:35.039Z,23.50
2023-07-03T03:20:18.386Z,24.80
2023-07-03T03:25:52.770Z,24.40
2023-07-03T03:28:39.798Z,25.30
2023-07-03T03:31:26.670Z,25.90
2023-07-03T03:34:17.717Z,24.60
2023-07-03T03:36:59.186Z,24.77
2023-07-03T03:39:56.616Z,25.77
2023-07-03T03:42:50.347Z,25.20
2023-07-03T03:45:44.990Z,23.80
2023-07-03T03:48:20.057Z,23.20
2023-07-03T03:51:16.004Z,23.03
2023-07-03T03:54:00.801Z,24.67
2023-07-03T03:56:47.959Z,23.87
2023-07-03T03:59:28.750Z,23.57
2023-07-03T04:02:15.200Z,25.17
2023-07-03T04:05:00.198Z,24.10
2023-07-03T04:10:25.596Z,23.47
2023-07-03T04:13:08.482Z,24.50
2023-07-03T04:16:05.147Z,24.47
2023-07-03T04:18:53.023Z,25.10
2023-07-03T04:21:29.633Z,24.63
2023-07-03T04:24:05.695Z,23.57
2023-07-03T04:26:55.379Z,25.00
2023-07-03T04:29:25.482Z,24.27
2023-07-03T04:31:56.243Z,24.83
2023-07-03T04:34:27.592Z,25.47
2023-07-03T04:36:58.840Z,23.23
2023-07-03T04:39:36.589Z,24.37
2023-07-03T04:42:16.599Z,23.63
2023-07-03T04:44:50.127Z,23.30
2023-07-03T04:47:22.968Z,22.93
2023-07-03T04:49:51.667Z,23.67
2023-07-03T04:52:24.651Z,23.60
2023-07-03T04:55:15.866Z,22.80
2023-07-03T04:57:49.640Z,24.30
2023-07-03T05:00:58.216Z,24.13
2023-07-03T05:03:45.485Z,23.13
2023-07-03T05:06:21.278Z,23.93
2023-07-03T05:09:15.204Z,25.70
2023-07-03T05:11:52.572Z,24.70
2023-07-03T05:14:33.453Z,24.40
2023-07-03T05:17:17.213Z,25.07
2023-07-03T05:19:51.622Z,25.20
2023-07-03T05:22:24.840Z,23.90
2023-07-03T05:25:04.325Z,24.60
2023-07-03T05:27:44.227Z,24.23
2023-07-03T05:30:44.418Z,25.40
2023-07-03T05:33:23.015Z,24.90
2023-07-03T05:36:07.637Z,24.90
2023-07-03T05:38:48.194Z,26.17
2023-07-03T05:41:25.672Z,24.53
2023-07-03T05:44:04.082Z,24.70
2023-07-03T05:47:11.967Z,24.67
2023-07-03T05:50:01.405Z,24.90
2023-07-03T05:55:49.651Z,25.70
2023-07-03T05:58:32.501Z,26.67
2023-07-03T06:01:07.376Z,26.57
2023-07-03T06:03:39.241Z,26.13
2023-07-03T06:06:18.896Z,25.97
2023-07-03T06:08:56.663Z,26.90
2023-07-03T06:11:26.285Z,26.00
2023-07-03T06:14:03.811Z,25.67
2023-07-03T06:17:01.756Z,25.50
2023-07-03T06:19:44.726Z,26.20
2023-07-03T06:22:33.474Z,26.33
2023-07-03T06:25:11.890Z,24.23
2023-07-03T06:27:40.412Z,26.30
2023-07-03T06:30:18.963Z,25.53
2023-07-03T06:32:47.435Z,25.87
2023-07-03T06:35:16.564Z,24.90
2023-07-03T06:37:46.347Z,25.83
2023-07-03T06:40:19.055Z,25.73
2023-07-03T06:42:50.602Z,25.40
2023-07-03T06:45:34.542Z,24.40
2023-07-03T06:48:06.847Z,24.80
2023-07-03T06:50:35.305Z,23.90
2023-07-03T06:53:13.591Z,22.90
2023-07-03T06:55:45.941Z,22.67
2023-07-03T06:58:23.541Z,22.57
2023-07-03T07:01:10.507Z,23.83
2023-07-03T07:03:49.335Z,23.43
2023-07-03T07:06:25.800Z,22.70
2023-07-03T07:09:07.068Z,22.80
2023-07-03T07:11:43.224Z,22.60
2023-07-03T07:14:20.572Z,25.37
2023-07-03T07:16:51.231Z,23.20
2023-07-03T07:19:21.059Z,24.17
2023-07-03T07:22:03.205Z,23.70
2023-07-03T07:24:43.721Z,23.47
2023-07-03T07:27:17.923Z,23.27
2023-07-03T07:29:54.634Z,22.87
2023-07-03T07:32:26.115Z,24.23
2023-07-03T07:34:54.479Z,23.03
2023-07-03T07:37:38.639Z,22.07
2023-07-03T07:40:13.424Z,22.60
2023-07-03T07:42:50.318Z,24.17
2023-07-03T07:45:24.197Z,22.70
2023-07-03T07:48:08.873Z,20.93
2023-07-03T07:50:53.080Z,21.17
2023-07-03T07:53:28.918Z,22.10
2023-07-03T07:56:06.276Z,22.47
2023-07-03T07:58:55.194Z,21.30
2023-07-03T08:01:26.222Z,23.30
2023-07-03T08:03:57.258Z,22.00
2023-07-03T08:06:29.399Z,21.83
2023-07-03T08:08:57.997Z,22.63
2023-07-03T08:11:29.711Z,22.90
2023-07-03T08:14:01.435Z,22.60
2023-07-03T08:16:35.774Z,22.47
2023-07-03T08:19:08.699Z,22.00
2023-07-03T08:21:49.110Z,22.47
2023-07-03T08:24:22.857Z,23.03
2023-07-03T08:27:03.826Z,22.60
2023-07-03T08:29:39.688Z,21.30
2023-07-03T08:38:35.354Z,22.33
2023-07-03T08:41:14.219Z,22.23
2023-07-03T08:43:53.765Z,21.90
2023-07-03T08:46:29.211Z,22.83
2023-07-03T08:49:13.443Z,22.43
2023-07-03T08:51:48.566Z,22.90
2023-07-03T08:54:33.653Z,22.80
2023-07-03T08:57:08.981Z,21.97
2023-07-03T08:59:50.961Z,21.00
2023-07-03T09:02:38.722Z,21.53
2023-07-03T09:05:31.292Z,21.57
2023-07-03T09:08:03.919Z,21.93
2023-07-03T09:10:38.871Z,21.13
2023-07-03T09:13:18.233Z,21.50
2023-07-03T09:15:57.460Z,21.30
2023-07-03T09:18:54.012Z,20.50
2023-07-03T09:21:33.480Z,21.10
2023-07-03T09:24:11.855Z,20.03
2023-07-03T09:26:52.994Z,21.20
2023-07-03T09:29:36.469Z,21.40
2023-07-03T09:32:16.708Z,21.10
2023-07-03T09:35:08.533Z,20.23
2023-07-03T09:37:51.961Z,20.33
2023-07-03T09:40:33.047Z,21.93
2023-07-03T09:43:09.625Z,19.97
2023-07-03T09:45:46.008Z,21.63
2023-07-03T09:48:31.694Z,19.90
2023-07-03T09:51:20.672Z,19.53
2023-07-03T09:54:00.639Z,19.80
2023-07-03T09:56:49.039Z,19.60
2023-07-03T09:59:34.305Z,20.87
2023-07-03T10:07:34.184Z,20.87
2023-07-03T10:12:46.136Z,21.57
2023-07-03T10:15:27.567Z,21.83
2023-07-03T10:18:11.220Z,22.57
2023-07-03T10:20:45.501Z,22.30
2023-07-03T10:23:18.908Z,22.27
2023-07-03T10:25:55.721Z,22.07
2023-07-03T10:28:38.618Z,22.43
2023-07-03T10:31:26.996Z,22.20
2023-07-03T10:37:28.643Z,22.47
2023-07-03T10:40:16.829Z,21.23
2023-07-03T10:43:03.077Z,21.70
2023-07-03T10:45:49.781Z,22.07
2023-07-03T10:48:41.622Z,21.30
2023-07-03T10:51:22.506Z,22.60
2023-07-03T10:54:08.861Z,20.53
2023-07-03T11:01:35.143Z,21.20
2023-07-03T11:04:26.378Z,21.73
2023-07-03T11:08:01.442Z,21.90
2023-07-03T11:10:45.057Z,22.00
2023-07-03T11:16:19.520Z,20.83
2023-07-03T11:25:09.664Z,20.93
2023-07-03T11:27:54.007Z,20.80
2023-07-03T11:57:41.527Z,21.77
2023-07-03T12:00:40.926Z,20.33
2023-07-03T12:04:50.378Z,22.73
2023-07-03T12:11:34.308Z,20.53
2023-07-03T12:18:35.510Z,22.60
2023-07-03T12:22:46.471Z,22.47
2023-07-03T12:29:53.888Z,22.80
2023-07-03T12:32:55.941Z,21.20
2023-07-03T12:35:46.820Z,21.90
2023-07-03T12:38:54.450Z,21.53
2023-07-03T12:41:58.989Z,21.20
2023-07-03T12:44:53.038Z,20.93
2023-07-03T12:50:52.258Z,22.60
2023-07-03T12:53:37.608Z,21.83
2023-07-03T12:56:23.837Z,22.47
2023-07-03T12:59:10.521Z,20.90
2023-07-03T13:01:47.699Z,20.67
2023-07-03T13:04:46.920Z,21.10
2023-07-03T13:07:38.717Z,20.30
2023-07-03T13:10:41.983Z,20.57
2023-07-03T13:16:43.559Z,20.70
2023-07-03T13:19:57.820Z,19.23
2023-07-03T13:23:12.216Z,20.13
2023-07-03T13:26:09.760Z,20.80
2023-07-03T13:29:21.910Z,18.90
2023-07-03T13:32:30.734Z,19.47
2023-07-03T13:35:44.708Z,18.80
2023-07-03T13:38:34.646Z,18.63
2023-07-03T13:41:15.551Z,19.60
2023-07-03T13:43:51.080Z,20.13
2023-07-03T13:46:19.999Z,18.97
2023-07-03T13:49:21.427Z,18.93
2023-07-03T13:51:52.591Z,19.10
2023-07-03T13:54:46.823Z,19.60
2023-07-03T13:57:18.700Z,19.70
2023-07-03T14:00:19.119Z,20.03
2023-07-03T14:02:55.020Z,20.10
2023-07-03T14:05:25.455Z,19.43
2023-07-03T14:08:04.594Z,19.47
2023-07-03T14:13:42.257Z,18.53
2023-07-03T14:16:18.191Z,20.27
2023-07-03T14:18:51.725Z,18.73
2023-07-03T14:21:32.692Z,19.23
2023-07-03T14:24:02.389Z,20.13
2023-07-03T14:26:40.431Z,19.03
2023-07-03T14:29:21.632Z,20.30
2023-07-03T14:31:53.293Z,18.77
2023-07-03T14:34:23.982Z,18.73
2023-07-03T14:36:59.187Z,17.90
2023-07-03T14:39:39.387Z,18.90
2023-07-03T14:42:20.469Z,18.40
2023-07-03T14:44:53.255Z,18.43
2023-07-03T14:47:31.609Z,19.17
2023-07-03T14:50:00.043Z,19.60
2023-07-03T14:52:36.838Z,18.77
2023-07-03T14:55:09.638Z,17.60
2023-07-03T14:57:40.855Z,18.00
2023-07-03T15:00:13.307Z,19.20
2023-07-03T15:02:43.421Z,19.60
2023-07-03T15:05:11.632Z,18.70
2023-07-03T15:07:40.499Z,18.07
2023-07-03T15:10:12.383Z,19.50
2023-07-03T15:12:45.414Z,19.07
2023-07-03T15:15:27.023Z,18.80
2023-07-03T15:17:58.131Z,19.40
2023-07-03T15:20:26.648Z,19.13
2023-07-03T15:22:57.302Z,19.40
2023-07-03T15:25:26.999Z,19.73
2023-07-03T15:27:58.158Z,18.20
2023-07-03T15:30:27.145Z,19.03
2023-07-03T15:32:58.151Z,17.60
2023-07-03T15:35:26.620Z,18.10
2023-07-03T15:38:00.109Z,17.30
2023-07-03T15:40:45.685Z,17.70
2023-07-03T15:43:14.136Z,17.37
2023-07-03T15:45:42.888Z,16.90
2023-07-03T15:48:13.753Z,17.33
2023-07-03T15:50:43.221Z,18.17
2023-07-03T15:53:12.797Z,17.50
2023-07-03T15:55:42.717Z,18.17
2023-07-03T15:58:11.029Z,17.10
2023-07-03T16:00:39.611Z,16.20
2023-07-03T16:03:08.059Z,17.37
2023-07-03T16:05:38.993Z,17.23
2023-07-03T16:08:07.444Z,16.67
2023-07-03T16:10:38.477Z,17.20
2023-07-03T16:13:09.816Z,16.43
2023-07-03T16:15:46.669Z,15.97
2023-07-03T16:18:14.943Z,16.30
2023-07-03T16:20:43.455Z,16.37
2023-07-03T16:23:13.595Z,16.67
2023-07-03T16:26:13.725Z,17.27
2023-07-03T16:28:43.725Z,16.43
2023-07-03T16:31:18.169Z,17.57
2023-07-03T16:33:56.342Z,15.77
2023-07-03T16:36:35.381Z,17.20
2023-07-03T16:39:17.275Z,16.67
2023-07-03T16:41:56.500Z,16.57
2023-07-03T16:44:30.547Z,16.20
2023-07-03T16:47:02.273Z,16.30
2023-07-03T16:50:12.194Z,15.97
2023-07-03T16:59:30.439Z,16.20
2023-07-03T17:02:19.698Z,15.70
2023-07-03T17:05:25.562Z,15.80
2023-07-03T17:08:21.001Z,15.47
2023-07-03T17:10:54.177Z,15.67
2023-07-03T17:13:25.370Z,16.00
2023-07-03T17:16:19.736Z,15.90
2023-07-03T17:19:18.071Z,15.03
2023-07-03T17:25:03.596Z,14.80
2023-07-03T17:27:35.471Z,15.10
2023-07-03T17:30:18.616Z,15.70
2023-07-03T17:33:13.277Z,15.50
2023-07-03T17:35:57.480Z,16.97
2023-07-03T17:38:30.192Z,17.00
2023-07-03T17:41:37.971Z,16.57
2023-07-03T17:47:11.579Z,15.03
2023-07-03T17:49:42.503Z,16.20
2023-07-03T17:52:27.616Z,17.03
2023-07-03T17:55:20.351Z,15.83
2023-07-03T17:57:55.308Z,15.70
2023-07-03T18:00:43.506Z,15.77
2023-07-03T18:03:46.367Z,15.40
2023-07-03T18:06:34.680Z,15.93
2023-07-03T18:09:41.880Z,15.90
2023-07-03T18:12:19.625Z,17.90
2023-07-03T18:14:52.578Z,15.87
2023-07-03T18:17:41.950Z,15.50
2023-07-03T18:20:28.129Z,15.60
2023-07-03T18:23:23.270Z,15.10
2023-07-03T18:26:09.280Z,15.70
2023-07-03T18:28:55.115Z,15.00
2023-07-03T18:31:45.040Z,15.57
2023-07-03T18:34:39.966Z,15.70
2023-07-03T18:37:14.879Z,14.80
2023-07-03T18:40:01.090Z,14.90
2023-07-03T18:45:59.678Z,15.10
2023-07-03T18:48:41.529Z,15.70
2023-07-03T18:51:45.461Z,14.67
2023-07-03T18:54:36.590Z,15.80
2023-07-03T18:57:39.970Z,14.93
2023-07-03T19:00:37.412Z,14.00
2023-07-03T19:03:42.414Z,14.73
2023-07-03T19:07:31.050Z,15.40
2023-07-03T19:13:54.469Z,13.60
2023-07-03T19:24:39.596Z,16.17
2023-07-03T19:27:16.862Z,17.00
2023-07-03T19:30:07.825Z,17.10
2023-07-03T19:32:52.854Z,17.10
2023-07-03T19:36:14.516Z,18.97
2023-07-03T19:42:36.368Z,17.40
2023-07-03T19:45:11.322Z,17.17
2023-07-03T19:47:57.743Z,18.70
2023-07-03T19:50:38.388Z,19.40
2023-07-03T19:53:14.518Z,18.77
2023-07-03T19:56:22.802Z,19.57
2023-07-03T19:58:54.005Z,20.03
2023-07-03T20:01:30.261Z,19.30
2023-07-03T20:04:12.118Z,18.43
2023-07-03T20:06:41.058Z,18.97
2023-07-03T20:09:31.592Z,19.93
2023-07-03T20:12:21.605Z,22.13
2023-07-03T20:17:58.514Z,18.03
2023-07-03T20:20:53.034Z,17.10
2023-07-03T20:23:32.961Z,17.80
2023-07-03T20:26:02.088Z,17.97
2023-07-03T20:28:44.279Z,18.80
2023-07-03T20:31:34.916Z,18.03
2023-07-03T20:34:10.336Z,19.00
2023-07-03T20:36:47.777Z,17.87
2023-07-03T20:39:34.401Z,18.47
2023-07-03T20:42:11.835Z,17.57
2023-07-03T20:44:45.247Z,17.40
2023-07-03T20:47:18.186Z,18.20
2023-07-03T20:50:06.717Z,16.80
2023-07-03T20:52:44.014Z,17.70
2023-07-03T20:55:38.277Z,17.50
2023-07-03T20:58:12.897Z,24.70
2023-07-03T21:00:50.339Z,18.23
2023-07-03T21:03:24.420Z,18.53
2023-07-03T21:05:55.958Z,17.90
2023-07-03T21:08:30.532Z,16.70
2023-07-03T21:11:45.487Z,16.90
2023-07-03T21:14:39.612Z,18.37
2023-07-03T21:17:46.994Z,18.67
2023-07-03T21:20:35.765Z,18.17
2023-07-03T21:23:30.421Z,17.23
2023-07-03T21:26:11.254Z,17.97
2023-07-03T21:32:00.523Z,18.43
2023-07-03T21:34:54.212Z,20.10
2023-07-03T21:37:39.612Z,17.90
2023-07-03T21:40:11.609Z,18.77
2023-07-03T21:43:06.286Z,18.20
2023-07-03T21:45:50.957Z,17.70
2023-07-03T21:48:42.711Z,18.17
2023-07-03T21:51:41.432Z,19.10
2023-07-03T21:54:21.015Z,17.80
2023-07-03T21:56:49.915Z,17.40
2023-07-03T21:59:25.547Z,16.80
2023-07-03T22:01:54.466Z,17.80
2023-07-03T22:04:33.441Z,16.43
2023-07-03T22:07:17.082Z,17.20
2023-07-03T22:09:59.168Z,17.57
2023-07-03T22:12:40.779Z,17.17
2023-07-03T22:15:31.888Z,16.63
2023-07-03T22:18:18.590Z,16.33
2023-07-03T22:21:17.212Z,16.97
2023-07-03T22:24:16.898Z,17.17
2023-07-03T22:27:14.074Z,17.40
2023-07-03T22:30:13.658Z,17.40
2023-07-03T22:33:08.533Z,16.30
2023-07-03T22:36:08.452Z,17.40
2023-07-03T22:39:07.658Z,17.77
2023-07-03T22:42:02.902Z,17.30
2023-07-03T22:44:33.869Z,18.50
2023-07-03T22:47:21.493Z,17.97
2023-07-03T22:53:10.783Z,16.40
2023-07-03T22:55:51.182Z,16.50
2023-07-03T22:58:46.116Z,17.60
2023-07-03T23:01:49.556Z,16.37
2023-07-03T23:04:35.118Z,16.00
2023-07-03T23:07:18.469Z,17.03
2023-07-03T23:09:52.562Z,17.13
2023-07-03T23:15:28.907Z,16.27
2023-07-03T23:18:21.036Z,16.77
2023-07-03T23:21:13.093Z,16.70
2023-07-03T23:26:59.000Z,17.17
2023-07-03T23:29:32.675Z,17.13
2023-07-03T23:32:32.670Z,15.77
2023-07-03T23:35:11.097Z,16.87
2023-07-03T23:37:42.640Z,16.57
2023-07-03T23:40:12.401Z,16.20
2023-07-03T23:42:40.724Z,16.70
2023-07-03T23:45:17.766Z,16.57
2023-07-03T23:47:55.018Z,16.10
2023-07-03T23:50:33.011Z,16.50
2023-07-03T23:53:30.290Z,15.30
2023-07-03T23:56:23.704Z,16.30
2023-07-03T23:59:11.405Z,16.67
